createdAt,value
2023-04-30T00:00:04.119Z,91.93
2023-04-30T00:02:51.758Z,92.12
2023-04-30T00:05:19.380Z,91.95
2023-04-30T00:07:46.938Z,92.22
2023-04-30T00:10:14.649Z,92.31
2023-04-30T00:12:42.244Z,92.18
2023-04-30T00:15:10.268Z,92.10
2023-04-30T00:17:37.886Z,92.22
2023-04-30T00:20:06.252Z,92.03
2023-04-30T00:22:33.864Z,91.86
2023-04-30T00:25:01.788Z,91.93
2023-04-30T00:27:29.330Z,91.88
2023-04-30T00:29:57.205Z,91.97
2023-04-30T00:32:24.944Z,92.06
2023-04-30T00:34:52.589Z,92.06
2023-04-30T00:37:20.199Z,92.02
2023-04-30T00:39:47.768Z,91.99
2023-04-30T00:42:15.458Z,92.10
2023-04-30T00:44:43.025Z,92.32
2023-04-30T00:47:10.595Z,92.07
2023-04-30T00:49:38.376Z,92.11
2023-04-30T00:52:06.005Z,92.12
2023-04-30T00:54:33.625Z,91.78
2023-04-30T00:57:02.681Z,92.15
2023-04-30T00:59:31.454Z,92.21
2023-04-30T01:01:59.099Z,92.37
2023-04-30T01:04:26.659Z,92.42
2023-04-30T01:06:54.329Z,92.66
2023-04-30T01:09:21.918Z,92.77
2023-04-30T01:12:13.494Z,92.59
2023-04-30T01:14:51.985Z,92.70
2023-04-30T01:17:41.472Z,92.93
2023-04-30T01:20:10.778Z,92.97
2023-04-30T01:23:19.004Z,92.95
2023-04-30T01:26:02.882Z,92.78
2023-04-30T01:28:32.392Z,92.77
2023-04-30T01:30:59.959Z,92.79
2023-04-30T01:33:27.534Z,92.84
2023-04-30T01:36:10.324Z,92.84
2023-04-30T01:38:50.759Z,92.61
2023-04-30T01:41:49.183Z,92.32
2023-04-30T01:44:54.757Z,92.44
2023-04-30T01:47:34.267Z,92.30
2023-04-30T01:50:04.611Z,92.43
2023-04-30T01:52:47.314Z,92.40
2023-04-30T01:55:21.285Z,92.35
2023-04-30T01:58:00.694Z,92.55
2023-04-30T02:00:29.996Z,92.52
2023-04-30T02:02:58.664Z,92.41
2023-04-30T02:05:26.423Z,92.45
2023-04-30T02:07:54.022Z,92.63
2023-04-30T02:10:25.188Z,92.47
2023-04-30T02:12:53.366Z,92.47
2023-04-30T02:15:20.928Z,92.46
2023-04-30T02:17:48.569Z,93.02
2023-04-30T02:20:16.363Z,93.06
2023-04-30T02:22:44.000Z,93.17
2023-04-30T02:25:11.580Z,93.31
2023-04-30T02:27:39.225Z,93.41
2023-04-30T02:30:07.328Z,93.51
2023-04-30T02:32:34.908Z,93.40
2023-04-30T02:35:02.562Z,93.64
2023-04-30T02:37:30.209Z,93.50
2023-04-30T02:39:57.974Z,93.91
2023-04-30T02:42:25.856Z,93.99
2023-04-30T02:44:53.392Z,93.77
2023-04-30T02:47:20.948Z,93.93
2023-04-30T02:49:48.502Z,94.18
2023-04-30T02:52:16.221Z,94.13
2023-04-30T02:54:43.746Z,94.03
2023-04-30T02:57:11.303Z,94.50
2023-04-30T02:59:38.837Z,94.20
2023-04-30T03:02:06.469Z,93.02
2023-04-30T03:04:33.998Z,90.98
2023-04-30T03:07:01.566Z,90.86
2023-04-30T03:09:30.859Z,91.31
2023-04-30T03:11:58.425Z,91.63
2023-04-30T03:14:25.977Z,91.95
2023-04-30T03:16:53.546Z,92.14
2023-04-30T03:19:21.124Z,91.97
2023-04-30T03:21:48.673Z,92.27
2023-04-30T03:24:16.349Z,92.17
2023-04-30T03:26:44.022Z,92.23
2023-04-30T03:29:11.606Z,92.39
2023-04-30T03:31:39.219Z,92.36
2023-04-30T03:34:06.812Z,92.34
2023-04-30T03:36:34.523Z,92.35
2023-04-30T03:39:04.748Z,92.50
2023-04-30T03:41:32.271Z,92.38
2023-04-30T03:43:59.820Z,92.53
2023-04-30T03:46:27.862Z,92.61
2023-04-30T03:48:55.430Z,92.73
2023-04-30T03:51:23.219Z,92.46
2023-04-30T03:53:50.780Z,92.20
2023-04-30T03:56:18.391Z,91.88
2023-04-30T03:58:46.001Z,91.80
2023-04-30T04:01:13.558Z,91.43
2023-04-30T04:03:41.217Z,91.00
2023-04-30T04:06:08.811Z,90.64
2023-04-30T04:08:36.380Z,90.23
2023-04-30T04:11:03.990Z,89.38
2023-04-30T04:13:31.550Z,88.90
2023-04-30T04:15:59.222Z,88.45
2023-04-30T04:18:26.806Z,88.28
2023-04-30T04:20:55.368Z,88.28
2023-04-30T04:23:23.273Z,88.19
2023-04-30T04:25:51.181Z,88.05
2023-04-30T04:28:18.734Z,87.47
2023-04-30T04:30:46.260Z,87.58
2023-04-30T04:33:13.834Z,87.26
2023-04-30T04:35:41.382Z,87.44
2023-04-30T04:38:09.364Z,87.62
2023-04-30T04:40:36.947Z,87.40
2023-04-30T04:43:04.533Z,86.62
2023-04-30T04:45:32.123Z,86.20
2023-04-30T04:47:59.719Z,86.15
2023-04-30T04:50:27.301Z,86.25
2023-04-30T04:52:54.856Z,86.58
2023-04-30T04:55:22.452Z,86.30
2023-04-30T04:57:50.001Z,86.56
2023-04-30T05:00:17.586Z,86.57
2023-04-30T05:02:45.248Z,86.59
2023-04-30T05:05:13.061Z,86.24
2023-04-30T05:07:40.676Z,85.77
2023-04-30T05:10:08.716Z,85.74
2023-04-30T05:12:36.338Z,85.62
2023-04-30T05:15:04.242Z,85.45
2023-04-30T05:17:31.909Z,85.25
2023-04-30T05:19:59.479Z,84.87
2023-04-30T05:22:27.002Z,84.80
2023-04-30T05:24:54.534Z,84.84
2023-04-30T05:27:22.070Z,84.49
2023-04-30T05:29:49.643Z,84.19
2023-04-30T05:32:17.271Z,84.34
2023-04-30T05:34:44.933Z,83.66
2023-04-30T05:37:12.503Z,82.91
2023-04-30T05:39:40.081Z,82.30
2023-04-30T05:42:07.680Z,82.60
2023-04-30T05:44:35.241Z,81.76
2023-04-30T05:47:02.839Z,80.67
2023-04-30T05:49:30.410Z,80.06
2023-04-30T05:51:57.951Z,79.80
2023-04-30T05:54:25.545Z,79.87
2023-04-30T05:56:53.106Z,79.32
2023-04-30T05:59:20.718Z,79.14
2023-04-30T06:01:48.462Z,78.36
2023-04-30T06:04:16.026Z,78.73
2023-04-30T06:06:43.792Z,78.60
2023-04-30T06:09:11.438Z,77.80
2023-04-30T06:11:41.000Z,78.00
2023-04-30T06:14:10.604Z,77.64
2023-04-30T06:16:38.420Z,76.38
2023-04-30T06:19:06.070Z,75.77
2023-04-30T06:21:33.638Z,76.46
2023-04-30T06:24:01.198Z,75.79
2023-04-30T06:26:28.860Z,75.82
2023-04-30T06:28:56.465Z,74.51
2023-04-30T06:31:24.114Z,73.41
2023-04-30T06:33:51.861Z,72.66
2023-04-30T06:36:19.431Z,73.13
2023-04-30T06:38:47.020Z,72.54
2023-04-30T06:41:15.062Z,71.51
2023-04-30T06:43:43.767Z,69.95
2023-04-30T06:46:11.357Z,68.95
2023-04-30T06:48:38.931Z,68.75
2023-04-30T06:51:08.073Z,70.44
2023-04-30T06:53:36.840Z,69.13
2023-04-30T06:56:04.740Z,68.58
2023-04-30T06:58:32.301Z,67.16
2023-04-30T07:00:59.883Z,65.57
2023-04-30T07:03:27.540Z,65.91
2023-04-30T07:05:55.297Z,64.56
2023-04-30T07:08:22.825Z,65.32
2023-04-30T07:10:50.420Z,66.00
2023-04-30T07:13:18.072Z,64.30
2023-04-30T07:15:45.791Z,64.38
2023-04-30T07:18:13.363Z,64.00
2023-04-30T07:20:40.953Z,63.45
2023-04-30T07:23:08.539Z,64.15
2023-04-30T07:25:36.090Z,64.06
2023-04-30T07:28:03.695Z,63.34
2023-04-30T07:30:31.345Z,64.19
2023-04-30T07:32:58.910Z,62.56
2023-04-30T07:35:26.523Z,63.71
2023-04-30T07:37:54.122Z,63.24
2023-04-30T07:40:29.136Z,62.98
2023-04-30T07:43:03.526Z,62.19
2023-04-30T07:45:31.232Z,62.87
2023-04-30T07:47:58.890Z,62.76
2023-04-30T07:50:26.524Z,63.44
2023-04-30T07:52:54.098Z,60.07
2023-04-30T07:55:21.722Z,61.01
2023-04-30T07:57:49.286Z,61.54
2023-04-30T08:00:17.109Z,61.62
2023-04-30T08:02:44.926Z,61.74
2023-04-30T08:05:12.622Z,62.05
2023-04-30T08:07:40.155Z,62.18
2023-04-30T08:10:08.121Z,61.93
2023-04-30T08:12:38.995Z,58.25
2023-04-30T08:15:07.157Z,56.97
2023-04-30T08:17:35.526Z,57.24
2023-04-30T08:20:04.493Z,57.32
2023-04-30T08:22:32.354Z,56.84
2023-04-30T08:25:00.085Z,56.37
2023-04-30T08:27:27.751Z,56.78
2023-04-30T08:29:55.564Z,56.54
2023-04-30T08:32:23.692Z,54.24
2023-04-30T08:34:51.433Z,55.18
2023-04-30T08:37:19.019Z,53.22
2023-04-30T08:39:46.574Z,53.10
2023-04-30T08:42:15.303Z,51.65
2023-04-30T08:44:42.887Z,50.94
2023-04-30T08:47:11.362Z,50.21
2023-04-30T08:49:39.889Z,50.31
2023-04-30T08:52:07.918Z,52.15
2023-04-30T08:54:38.264Z,51.36
2023-04-30T08:57:06.031Z,50.19
2023-04-30T08:59:33.635Z,49.27
2023-04-30T09:02:01.215Z,49.30
2023-04-30T09:04:28.867Z,48.61
2023-04-30T09:06:56.518Z,47.36
2023-04-30T09:09:37.619Z,45.51
2023-04-30T09:12:11.471Z,47.37
2023-04-30T09:14:39.134Z,45.86
2023-04-30T09:17:07.705Z,47.77
2023-04-30T09:19:35.376Z,45.98
2023-04-30T09:22:22.852Z,46.09
2023-04-30T09:24:51.326Z,46.32
2023-04-30T09:27:21.059Z,46.67
2023-04-30T09:29:49.316Z,46.18
2023-04-30T09:32:17.011Z,45.59
2023-04-30T09:34:44.627Z,43.66
2023-04-30T09:37:12.201Z,42.01
2023-04-30T09:39:50.417Z,42.69
2023-04-30T09:42:18.775Z,41.82
2023-04-30T09:44:47.470Z,39.94
2023-04-30T09:47:17.777Z,38.78
2023-04-30T09:49:50.526Z,41.26
2023-04-30T09:52:18.854Z,41.17
2023-04-30T09:54:47.155Z,40.11
2023-04-30T09:57:16.214Z,37.03
2023-04-30T09:59:46.423Z,37.46
2023-04-30T10:02:16.050Z,33.33
2023-04-30T10:04:45.328Z,31.55
2023-04-30T10:07:20.846Z,32.31
2023-04-30T10:09:55.694Z,32.33
2023-04-30T10:12:27.832Z,30.98
2023-04-30T10:15:02.340Z,32.13
2023-04-30T10:17:34.416Z,29.46
2023-04-30T10:20:06.619Z,27.80
2023-04-30T10:22:34.992Z,24.80
2023-04-30T10:25:03.307Z,23.39
2023-04-30T10:27:30.896Z,24.65
2023-04-30T10:29:59.560Z,23.59
2023-04-30T10:32:33.480Z,23.79
2023-04-30T10:35:16.148Z,25.27
2023-04-30T10:37:48.562Z,26.08
2023-04-30T10:40:16.314Z,25.03
2023-04-30T10:42:49.241Z,26.57
2023-04-30T10:45:17.139Z,26.55
2023-04-30T10:47:45.296Z,24.17
2023-04-30T10:50:13.119Z,23.85
2023-04-30T10:52:40.817Z,23.61
2023-04-30T10:55:09.675Z,23.33
2023-04-30T10:57:42.169Z,22.88
2023-04-30T11:00:09.691Z,21.73
2023-04-30T11:02:47.472Z,21.57
2023-04-30T11:05:16.636Z,22.12
2023-04-30T11:07:47.288Z,22.92
2023-04-30T11:10:15.753Z,22.92
2023-04-30T11:12:51.389Z,21.21
2023-04-30T11:15:21.380Z,21.41
2023-04-30T11:17:50.124Z,21.11
2023-04-30T11:20:23.971Z,20.42
2023-04-30T11:23:19.735Z,19.89
2023-04-30T11:25:55.741Z,19.95
2023-04-30T11:28:27.905Z,19.97
2023-04-30T11:30:57.497Z,19.84
2023-04-30T11:33:27.064Z,19.63
2023-04-30T11:35:59.800Z,20.18
2023-04-30T11:38:30.350Z,19.69
2023-04-30T11:40:58.283Z,19.14
2023-04-30T11:43:27.987Z,17.85
2023-04-30T11:46:06.484Z,17.22
2023-04-30T11:48:36.046Z,17.83
2023-04-30T11:51:14.116Z,18.34
2023-04-30T11:53:41.991Z,15.07
2023-04-30T11:56:09.574Z,16.61
2023-04-30T11:58:37.908Z,15.21
2023-04-30T12:01:09.711Z,15.22
2023-04-30T12:03:41.958Z,14.53
2023-04-30T12:06:23.002Z,15.24
2023-04-30T12:08:53.443Z,15.90
2023-04-30T12:11:26.165Z,13.05
2023-04-30T12:14:11.763Z,12.59
2023-04-30T12:16:51.291Z,13.11
2023-04-30T12:19:21.001Z,13.63
2023-04-30T12:21:49.497Z,13.77
2023-04-30T12:24:18.133Z,14.31
2023-04-30T12:26:46.398Z,14.64
2023-04-30T12:29:18.659Z,14.91
2023-04-30T12:31:49.600Z,14.22
2023-04-30T12:34:17.246Z,13.51
2023-04-30T12:36:45.337Z,13.25
2023-04-30T12:39:14.524Z,13.45
2023-04-30T12:41:49.799Z,12.31
2023-04-30T12:44:25.207Z,12.56
2023-04-30T12:46:55.795Z,12.77
2023-04-30T12:49:25.041Z,13.07
2023-04-30T12:51:58.549Z,12.13
2023-04-30T12:54:27.999Z,12.44
2023-04-30T12:57:11.734Z,11.96
2023-04-30T12:59:40.353Z,12.27
2023-04-30T13:02:13.589Z,12.11
2023-04-30T13:04:42.242Z,11.90
2023-04-30T13:07:10.831Z,11.91
2023-04-30T13:09:38.480Z,12.25
2023-04-30T13:12:06.652Z,12.01
2023-04-30T13:14:34.983Z,12.06
2023-04-30T13:17:02.672Z,12.42
2023-04-30T13:19:30.458Z,13.10
2023-04-30T13:21:58.165Z,12.87
2023-04-30T13:24:25.725Z,11.73
2023-04-30T13:26:53.629Z,11.26
2023-04-30T13:29:21.209Z,10.12
2023-04-30T13:31:48.885Z,10.41
2023-04-30T13:34:16.678Z,10.46
2023-04-30T13:36:44.247Z,10.07
2023-04-30T13:39:11.815Z,10.44
2023-04-30T13:41:42.505Z,10.29
2023-04-30T13:44:10.106Z,10.36
2023-04-30T13:46:37.764Z,10.47
2023-04-30T13:49:05.371Z,10.35
2023-04-30T13:51:32.947Z,10.85
2023-04-30T13:54:00.529Z,10.18
2023-04-30T13:56:28.690Z,10.23
2023-04-30T13:58:56.262Z,11.16
2023-04-30T14:01:23.902Z,11.52
2023-04-30T14:03:51.560Z,11.42
2023-04-30T14:06:19.400Z,10.83
2023-04-30T14:08:46.981Z,10.67
2023-04-30T14:11:14.687Z,10.73
2023-04-30T14:13:42.305Z,10.02
2023-04-30T14:16:09.913Z,9.72
2023-04-30T14:18:37.507Z,10.21
2023-04-30T14:21:05.119Z,10.78
2023-04-30T14:23:32.655Z,10.39
2023-04-30T14:26:00.360Z,9.80
2023-04-30T14:28:27.960Z,9.52
2023-04-30T14:30:55.635Z,10.44
2023-04-30T14:33:23.267Z,10.89
2023-04-30T14:35:50.928Z,10.83
2023-04-30T14:38:18.516Z,11.01
2023-04-30T14:40:46.256Z,11.89
2023-04-30T14:43:13.787Z,11.79
2023-04-30T14:45:41.437Z,11.43
2023-04-30T14:48:09.186Z,11.32
2023-04-30T14:50:36.730Z,11.11
2023-04-30T14:53:06.763Z,11.63
2023-04-30T14:55:34.376Z,11.41
2023-04-30T14:58:01.945Z,10.59
2023-04-30T15:00:29.599Z,9.73
2023-04-30T15:02:57.354Z,9.32
2023-04-30T15:05:25.614Z,10.41
2023-04-30T15:07:53.174Z,10.15
2023-04-30T15:10:21.111Z,9.93
2023-04-30T15:12:48.667Z,9.63
2023-04-30T15:15:18.682Z,9.82
2023-04-30T15:17:46.651Z,9.52
2023-04-30T15:20:14.210Z,9.77
2023-04-30T15:22:41.766Z,9.78
2023-04-30T15:25:09.511Z,9.46
2023-04-30T15:27:37.123Z,9.42
2023-04-30T15:30:06.151Z,9.81
2023-04-30T15:32:33.703Z,10.76
2023-04-30T15:35:01.344Z,10.49
2023-04-30T15:37:28.915Z,10.59
2023-04-30T15:39:56.775Z,10.09
2023-04-30T15:42:24.617Z,10.10
2023-04-30T15:44:52.236Z,9.83
2023-04-30T15:47:21.239Z,9.95
2023-04-30T15:49:50.226Z,10.36
2023-04-30T15:52:17.789Z,10.38
2023-04-30T15:54:45.342Z,10.36
2023-04-30T15:57:13.130Z,10.66
2023-04-30T15:59:40.673Z,10.61
2023-04-30T16:02:08.350Z,10.20
2023-04-30T16:04:36.007Z,10.40
2023-04-30T16:07:03.847Z,10.56
2023-04-30T16:09:32.412Z,10.79
2023-04-30T16:12:00.036Z,10.40
2023-04-30T16:14:27.664Z,10.67
2023-04-30T16:16:55.333Z,10.58
2023-04-30T16:19:22.999Z,10.72
2023-04-30T16:21:50.780Z,10.93
2023-04-30T16:24:18.357Z,11.02
2023-04-30T16:26:45.885Z,10.63
2023-04-30T16:29:13.427Z,10.93
2023-04-30T16:31:41.774Z,11.93
2023-04-30T16:34:09.330Z,12.81
2023-04-30T16:36:36.908Z,12.89
2023-04-30T16:39:04.845Z,12.77
2023-04-30T16:41:32.417Z,13.03
2023-04-30T16:44:00.003Z,12.43
2023-04-30T16:46:28.005Z,12.81
2023-04-30T16:48:55.670Z,13.19
2023-04-30T16:51:23.251Z,14.04
2023-04-30T16:53:50.825Z,14.17
2023-04-30T16:56:18.444Z,14.90
2023-04-30T16:58:46.009Z,15.61
2023-04-30T17:01:13.619Z,15.94
2023-04-30T17:03:41.303Z,16.28
2023-04-30T17:06:08.963Z,17.09
2023-04-30T17:08:36.577Z,17.98
2023-04-30T17:11:04.330Z,18.62
2023-04-30T17:13:32.098Z,19.53
2023-04-30T17:16:01.476Z,20.51
2023-04-30T17:18:29.737Z,21.65
2023-04-30T17:20:57.317Z,22.53
2023-04-30T17:23:24.959Z,23.50
2023-04-30T17:25:52.524Z,24.09
2023-04-30T17:28:20.107Z,24.94
2023-04-30T17:30:47.711Z,25.50
2023-04-30T17:33:15.594Z,26.27
2023-04-30T17:35:43.189Z,26.96
2023-04-30T17:38:10.783Z,27.98
2023-04-30T17:40:38.388Z,28.52
2023-04-30T17:43:05.933Z,29.30
2023-04-30T17:45:33.614Z,29.60
2023-04-30T17:48:01.255Z,30.20
2023-04-30T17:50:28.857Z,30.72
2023-04-30T17:52:56.395Z,30.86
2023-04-30T17:55:24.066Z,31.18
2023-04-30T17:57:51.656Z,32.17
2023-04-30T18:00:19.190Z,32.50
2023-04-30T18:02:46.893Z,32.78
2023-04-30T18:05:14.547Z,33.21
2023-04-30T18:07:42.254Z,33.20
2023-04-30T18:10:09.925Z,33.53
2023-04-30T18:12:37.550Z,33.60
2023-04-30T18:15:06.848Z,34.02
2023-04-30T18:17:37.095Z,34.18
2023-04-30T18:20:05.936Z,34.63
2023-04-30T18:22:33.683Z,34.89
2023-04-30T18:25:01.380Z,35.44
2023-04-30T18:27:29.030Z,35.59
2023-04-30T18:29:56.886Z,35.59
2023-04-30T18:32:24.835Z,36.62
2023-04-30T18:34:52.684Z,37.02
2023-04-30T18:37:20.300Z,37.91
2023-04-30T18:39:47.866Z,37.97
2023-04-30T18:42:15.547Z,38.82
2023-04-30T18:44:43.126Z,38.56
2023-04-30T18:47:10.700Z,40.24
2023-04-30T18:49:38.351Z,40.18
2023-04-30T18:52:05.960Z,40.21
2023-04-30T18:54:34.592Z,41.21
2023-04-30T18:57:02.154Z,41.47
2023-04-30T18:59:29.871Z,41.96
2023-04-30T19:01:57.461Z,42.21
2023-04-30T19:04:25.079Z,42.77
2023-04-30T19:06:52.749Z,43.31
2023-04-30T19:09:20.408Z,44.56
2023-04-30T19:11:47.967Z,45.36
2023-04-30T19:14:15.745Z,45.07
2023-04-30T19:16:43.386Z,45.40
2023-04-30T19:19:11.050Z,45.84
2023-04-30T19:21:38.606Z,46.07
2023-04-30T19:24:06.202Z,46.77
2023-04-30T19:26:33.800Z,46.70
2023-04-30T19:29:01.408Z,48.71
2023-04-30T19:31:29.341Z,48.60
2023-04-30T19:33:59.788Z,48.00
2023-04-30T19:36:27.526Z,47.19
2023-04-30T19:38:55.733Z,46.92
2023-04-30T19:41:23.301Z,47.42
2023-04-30T19:43:50.863Z,47.42
2023-04-30T19:46:18.491Z,48.33
2023-04-30T19:48:46.067Z,49.26
2023-04-30T19:51:13.673Z,49.97
2023-04-30T19:53:41.254Z,50.73
2023-04-30T19:56:09.051Z,51.22
2023-04-30T19:58:36.875Z,51.53
2023-04-30T20:01:04.454Z,52.16
2023-04-30T20:03:32.372Z,52.59
2023-04-30T20:06:00.013Z,52.86
2023-04-30T20:08:27.575Z,52.65
2023-04-30T20:10:55.151Z,52.86
2023-04-30T20:13:22.913Z,52.59
2023-04-30T20:15:51.002Z,52.85
2023-04-30T20:18:18.770Z,52.96
2023-04-30T20:20:46.396Z,53.40
2023-04-30T20:23:16.771Z,53.72
2023-04-30T20:25:45.912Z,54.17
2023-04-30T20:28:15.267Z,54.71
2023-04-30T20:30:43.547Z,54.47
2023-04-30T20:33:13.166Z,54.75
2023-04-30T20:35:43.695Z,54.77
2023-04-30T20:38:11.944Z,54.81
2023-04-30T20:40:39.543Z,55.58
2023-04-30T20:43:10.597Z,55.91
2023-04-30T20:45:38.839Z,56.40
2023-04-30T20:48:06.653Z,57.06
2023-04-30T20:50:34.459Z,57.58
2023-04-30T20:53:02.025Z,58.02
2023-04-30T20:55:29.607Z,58.45
2023-04-30T20:57:57.168Z,58.88
2023-04-30T21:00:24.815Z,59.18
2023-04-30T21:02:52.451Z,59.62
2023-04-30T21:05:20.127Z,60.19
2023-04-30T21:07:47.709Z,60.61
2023-04-30T21:10:15.417Z,60.75
2023-04-30T21:12:42.939Z,61.06
2023-04-30T21:15:10.992Z,61.17
2023-04-30T21:17:38.579Z,61.60
2023-04-30T21:20:06.856Z,61.74
2023-04-30T21:22:34.416Z,62.24
2023-04-30T21:25:01.969Z,62.68
2023-04-30T21:27:29.579Z,63.77
2023-04-30T21:29:57.464Z,64.41
2023-04-30T21:32:25.283Z,64.34
2023-04-30T21:34:52.885Z,65.29
2023-04-30T21:37:20.559Z,65.75
2023-04-30T21:39:48.155Z,65.13
2023-04-30T21:42:15.863Z,65.41
2023-04-30T21:44:43.456Z,65.74
2023-04-30T21:47:10.994Z,64.98
2023-04-30T21:49:38.567Z,64.69
2023-04-30T21:52:06.127Z,65.36
2023-04-30T21:54:33.925Z,66.24
2023-04-30T21:57:01.479Z,65.67
2023-04-30T21:59:29.097Z,65.52
2023-04-30T22:01:56.719Z,66.00
2023-04-30T22:04:24.434Z,66.07
2023-04-30T22:06:52.095Z,65.98
2023-04-30T22:09:19.736Z,66.37
2023-04-30T22:11:47.286Z,67.10
2023-04-30T22:14:14.988Z,67.46
2023-04-30T22:16:42.598Z,67.57
2023-04-30T22:19:10.211Z,67.86
2023-04-30T22:21:37.812Z,68.26
2023-04-30T22:24:05.635Z,68.48
2023-04-30T22:26:33.194Z,68.41
2023-04-30T22:29:00.739Z,68.39
2023-04-30T22:31:28.283Z,68.63
2023-04-30T22:33:55.854Z,68.64
2023-04-30T22:36:23.410Z,68.39
2023-04-30T22:38:51.013Z,68.59
2023-04-30T22:41:18.579Z,68.48
2023-04-30T22:43:46.485Z,68.67
2023-04-30T22:46:14.693Z,69.16
2023-04-30T22:48:42.495Z,69.52
2023-04-30T22:51:10.261Z,70.22
2023-04-30T22:53:37.855Z,70.99
2023-04-30T22:56:05.726Z,71.47
2023-04-30T22:58:33.338Z,71.90
2023-04-30T23:01:00.912Z,72.38
2023-04-30T23:03:28.472Z,72.07
2023-04-30T23:05:59.442Z,71.68
2023-04-30T23:08:26.993Z,72.09
2023-04-30T23:10:54.548Z,72.56
2023-04-30T23:13:22.105Z,72.93
2023-04-30T23:15:49.786Z,72.53
2023-04-30T23:18:17.337Z,72.98
2023-04-30T23:20:45.303Z,73.22
2023-04-30T23:23:12.908Z,72.89
2023-04-30T23:25:40.464Z,72.43
2023-04-30T23:28:08.101Z,72.70
2023-04-30T23:30:38.068Z,72.87
2023-04-30T23:33:05.644Z,72.84
2023-04-30T23:35:33.240Z,72.64
2023-04-30T23:38:00.813Z,72.57
2023-04-30T23:40:28.376Z,72.91
2023-04-30T23:42:55.950Z,73.40
2023-04-30T23:45:23.534Z,72.95
2023-04-30T23:47:51.128Z,72.60
2023-04-30T23:50:18.782Z,73.08
2023-04-30T23:52:46.393Z,72.67
2023-04-30T23:55:14.249Z,72.81
2023-04-30T23:57:42.343Z,73.11
